Time;durP1;ratioP1;P1;durP2;ratioP2;P2;SDS_P1;SDS_P2;PMS_P1;PMS_P2;Temp;Humidity;BMP_temperature;BMP_pressure;BME280_temperature;BME280_humidity;BME280_pressure;Samples;Min_cycle;Max_cycle;Signal;HPM_P1;HPM_P2
2023/03/03 00:00:50;;;;;;;16.20;8.70;;;;;;;5.16;45.51;101029.39;108014;1286;21988;-61
2023/03/03 00:03:21;;;;;;;12.80;8.60;;;;;;;5.14;45.41;101030.19;108077;1284;22018;-61
2023/03/03 00:05:46;;;;;;;16.90;9.20;;;;;;;5.09;45.36;101024.36;107778;1289;21986;-63
2023/03/03 00:08:12;;;;;;;15.50;8.80;;;;;;;5.05;45.35;101017.86;108047;1289;22455;-63
2023/03/03 00:10:41;;;;;;;15.40;9.30;;;;;;;5.01;45.45;101014.13;108019;1289;21987;-61
2023/03/03 00:13:18;;;;;;;16.00;9.40;;;;;;;4.97;45.67;101012.30;107250;1289;1002307;-63
2023/03/03 00:15:44;;;;;;;17.00;9.70;;;;;;;4.96;45.68;101005.30;108047;1289;21955;-60
2023/03/03 00:18:25;;;;;;;16.90;9.90;;;;;;;4.97;45.78;101001.33;108044;1289;22100;-61
2023/03/03 00:20:53;;;;;;;19.00;10.50;;;;;;;5.00;45.72;100994.09;107988;1289;21993;-62
2023/03/03 00:23:20;;;;;;;18.20;9.90;;;;;;;5.03;45.78;100989.64;108082;1289;21999;-61
2023/03/03 00:25:48;;;;;;;17.20;9.50;;;;;;;5.07;45.91;100986.40;108062;1289;21972;-63
2023/03/03 00:28:23;;;;;;;14.50;8.40;;;;;;;5.09;46.08;100982.27;108076;1289;21982;-61
2023/03/03 00:30:51;;;;;;;16.30;9.10;;;;;;;5.12;46.03;100977.45;108014;1289;21994;-62
2023/03/03 00:33:33;;;;;;;19.10;10.40;;;;;;;5.16;45.93;100975.25;108065;1289;21994;-63
2023/03/03 00:36:46;;;;;;;17.00;8.60;;;;;;;5.19;46.02;100973.76;108078;1289;22034;-61
2023/03/03 00:39:29;;;;;;;16.20;9.20;;;;;;;5.20;46.04;100970.84;107958;1289;21979;-62
2023/03/03 00:41:56;;;;;;;18.40;9.80;;;;;;;5.21;46.12;100967.02;108065;1289;22022;-60
2023/03/03 00:44:31;;;;;;;16.60;9.10;;;;;;;5.24;45.98;100964.65;108023;1289;21985;-61
2023/03/03 00:47:11;;;;;;;14.70;8.80;;;;;;;5.27;46.17;100958.79;108031;1289;22097;-62
2023/03/03 00:49:37;;;;;;;16.10;8.40;;;;;;;5.30;46.00;100955.52;107995;1289;21989;-60
2023/03/03 00:52:11;;;;;;;14.40;8.70;;;;;;;5.33;45.95;100953.49;107832;1289;22027;-60
2023/03/03 00:54:38;;;;;;;18.70;8.80;;;;;;;5.37;46.01;100951.98;107994;1289;22012;-60
2023/03/03 00:57:03;;;;;;;13.40;8.30;;;;;;;5.39;45.85;100950.12;107982;1289;21998;-62
2023/03/03 00:59:29;;;;;;;16.20;10.60;;;;;;;5.40;45.95;100943.86;107240;1289;1002532;-62
2023/03/03 01:01:55;;;;;;;15.40;8.50;;;;;;;5.40;46.00;100942.30;107987;1289;22151;-61
2023/03/03 01:04:21;;;;;;;15.70;9.00;;;;;;;5.38;45.69;100942.44;108039;1289;22025;-60
2023/03/03 01:06:48;;;;;;;15.80;8.60;;;;;;;5.34;45.73;100945.15;108000;1288;21995;-60
2023/03/03 01:09:14;;;;;;;13.60;7.80;;;;;;;5.28;45.48;100942.96;107990;1289;21983;-62
2023/03/03 01:11:40;;;;;;;14.80;8.50;;;;;;;5.20;45.53;100942.30;108052;1289;22058;-61
2023/03/03 01:14:06;;;;;;;14.80;8.10;;;;;;;5.14;45.60;100940.27;108028;1289;21982;-60
2023/03/03 01:16:31;;;;;;;16.50;8.40;;;;;;;5.09;45.83;100937.38;107282;1289;1002558;-60
2023/03/03 01:18:59;;;;;;;19.10;10.10;;;;;;;5.05;46.24;100934.00;107945;1290;21991;-61
2023/03/03 01:21:24;;;;;;;16.70;9.70;;;;;;;4.90;46.63;100934.42;108012;1289;22020;-60
2023/03/03 01:23:50;;;;;;;14.60;9.10;;;;;;;4.85;46.86;100932.41;107983;1289;21993;-62
2023/03/03 01:26:16;;;;;;;16.60;10.00;;;;;;;4.85;47.24;100934.32;108018;1289;22026;-62
2023/03/03 01:28:41;;;;;;;20.20;9.70;;;;;;;4.86;47.13;100929.63;108008;1289;21996;-62
2023/03/03 01:31:07;;;;;;;21.00;9.90;;;;;;;4.88;47.12;100926.03;108035;1289;21982;-61
2023/03/03 01:33:34;;;;;;;16.30;9.00;;;;;;;4.94;47.27;100920.75;108069;1289;22043;-61
2023/03/03 01:36:00;;;;;;;14.10;8.40;;;;;;;5.01;47.07;100918.27;108042;1289;21993;-60
2023/03/03 01:38:27;;;;;;;16.30;8.50;;;;;;;5.05;47.06;100916.10;108079;1282;22172;-62
2023/03/03 01:40:57;;;;;;;15.10;8.60;;;;;;;5.07;47.08;100915.27;108052;1289;21989;-61
2023/03/03 01:43:26;;;;;;;16.00;9.20;;;;;;;5.12;46.95;100908.55;108058;1289;21986;-63
2023/03/03 01:45:52;;;;;;;16.40;8.60;;;;;;;5.14;46.81;100905.98;108174;1289;21983;-62
2023/03/03 01:48:22;;;;;;;18.00;8.80;;;;;;;5.11;46.58;100906.98;108031;1289;21992;-61
2023/03/03 01:50:50;;;;;;;16.60;8.50;;;;;;;5.06;46.39;100905.69;108000;1289;21992;-60
2023/03/03 01:53:18;;;;;;;18.30;8.70;;;;;;;5.00;45.98;100904.52;108005;1289;21989;-62
2023/03/03 01:55:44;;;;;;;17.20;8.80;;;;;;;4.87;46.30;100904.95;108027;1289;22010;-62
2023/03/03 01:58:21;;;;;;;17.60;8.00;;;;;;;4.64;46.45;100903.46;107890;1289;22027;-63
2023/03/03 02:00:50;;;;;;;14.00;7.80;;;;;;;4.53;46.43;100899.08;107940;1289;22069;-61
2023/03/03 02:03:18;;;;;;;19.10;9.70;;;;;;;4.48;46.47;100901.74;107309;1289;1002334;-63
2023/03/03 02:05:45;;;;;;;17.70;9.90;;;;;;;4.43;46.27;100901.80;108052;1289;22573;-63
2023/03/03 02:08:11;;;;;;;18.00;9.60;;;;;;;4.37;46.28;100901.86;107845;1289;21980;-64
2023/03/03 02:10:38;;;;;;;16.00;9.00;;;;;;;4.28;46.14;100900.63;107932;1289;22092;-60
2023/03/03 02:13:03;;;;;;;19.90;10.20;;;;;;;4.16;45.95;100902.63;108034;1289;22048;-62
2023/03/03 02:15:31;;;;;;;17.20;8.60;;;;;;;4.05;46.00;100900.80;108061;1289;21983;-60
2023/03/03 02:18:03;;;;;;;16.80;8.80;;;;;;;3.94;46.01;100895.19;108027;1289;21994;-60
2023/03/03 02:20:29;;;;;;;20.90;9.30;;;;;;;3.96;45.81;100894.53;107748;1289;21983;-61
2023/03/03 02:23:05;;;;;;;15.50;8.30;;;;;;;3.99;45.33;100891.99;107986;1289;21986;-60
2023/03/03 02:25:56;;;;;;;15.50;8.10;;;;;;;3.92;45.22;100890.29;108029;1289;21991;-62
2023/03/03 02:28:23;;;;;;;17.10;8.80;;;;;;;3.85;45.29;100890.45;108047;1289;22021;-62
2023/03/03 02:30:49;;;;;;;13.00;7.60;;;;;;;3.81;45.34;100888.11;108079;1289;21992;-62
2023/03/03 02:33:15;;;;;;;15.90;8.20;;;;;;;3.80;45.36;100887.02;107983;1289;22057;-63
2023/03/03 02:35:41;;;;;;;17.50;9.60;;;;;;;3.78;45.36;100882.48;107281;1289;1002361;-60
2023/03/03 02:38:09;;;;;;;16.30;8.90;;;;;;;3.74;45.58;100881.88;107245;1289;1003144;-62
2023/03/03 02:40:37;;;;;;;16.80;8.80;;;;;;;3.70;45.52;100881.27;107958;1289;22458;-62
2023/03/03 02:43:03;;;;;;;17.20;8.80;;;;;;;3.66;45.39;100878.40;108098;1289;22769;-62
2023/03/03 02:45:31;;;;;;;15.20;8.10;;;;;;;3.59;45.25;100878.56;107692;1289;21991;-63
2023/03/03 02:47:57;;;;;;;15.80;8.50;;;;;;;3.45;45.01;100878.73;108000;1289;21991;-60
2023/03/03 02:50:23;;;;;;;16.40;8.20;;;;;;;3.29;45.00;100876.09;106946;1289;1003102;-60
2023/03/03 02:52:49;;;;;;;13.10;7.10;;;;;;;3.16;44.95;100878.70;107562;1289;1003139;-60
2023/03/03 02:55:15;;;;;;;16.20;8.10;;;;;;;3.06;45.08;100877.08;107980;1289;22033;-60
2023/03/03 02:57:41;;;;;;;16.00;8.50;;;;;;;3.00;45.11;100875.52;107990;1289;21991;-63
2023/03/03 03:00:07;;;;;;;15.70;7.90;;;;;;;2.97;45.14;100875.10;108078;1289;21994;-62
2023/03/03 03:02:33;;;;;;;24.70;14.50;;;;;;;2.98;45.32;100870.42;107858;1289;21988;-62
2023/03/03 03:04:59;;;;;;;23.80;13.70;;;;;;;3.01;45.36;100870.33;108014;1289;21994;-60
2023/03/03 03:07:28;;;;;;;18.90;10.80;;;;;;;3.02;45.51;100870.55;107251;1289;1002211;-60
2023/03/03 03:09:55;;;;;;;20.80;11.00;;;;;;;3.04;45.64;100866.79;108032;1289;22026;-62
2023/03/03 03:12:21;;;;;;;18.20;9.00;;;;;;;3.07;45.63;100863.57;108061;1289;21986;-61
2023/03/03 03:14:46;;;;;;;19.00;10.20;;;;;;;3.07;45.64;100866.02;107997;1289;21984;-60
2023/03/03 03:17:12;;;;;;;17.30;8.30;;;;;;;3.08;45.64;100862.73;107249;1289;1002567;-60
2023/03/03 03:19:38;;;;;;;14.00;8.20;;;;;;;3.07;45.47;100859.77;107985;1289;21989;-60
2023/03/03 03:22:04;;;;;;;14.70;8.00;;;;;;;3.05;45.31;100857.79;107991;1289;21988;-60
2023/03/03 03:24:30;;;;;;;13.90;7.40;;;;;;;3.02;45.36;100855.30;107988;1289;21980;-61
2023/03/03 03:26:56;;;;;;;13.90;7.70;;;;;;;3.03;45.35;100852.02;107289;1289;1002398;-61
2023/03/03 03:29:22;;;;;;;14.40;8.30;;;;;;;3.03;45.37;100845.95;107246;1289;1003064;-60
2023/03/03 03:31:48;;;;;;;14.60;8.30;;;;;;;3.01;45.24;100844.16;107249;1289;1002604;-60
2023/03/03 03:34:14;;;;;;;15.50;8.60;;;;;;;2.96;45.33;100840.76;107969;1289;21985;-61
2023/03/03 03:36:40;;;;;;;15.60;7.60;;;;;;;2.93;45.23;100840.47;108009;1289;21990;-60
2023/03/03 03:39:25;;;;;;;13.90;7.40;;;;;;;2.88;45.17;100838.63;107215;1289;1007086;-60
2023/03/03 03:41:52;;;;;;;14.40;7.60;;;;;;;2.86;45.17;100843.58;107988;1289;22013;-60
2023/03/03 03:44:18;;;;;;;15.40;7.70;;;;;;;2.83;45.01;100843.70;108020;1289;22011;-60
2023/03/03 03:46:44;;;;;;;16.30;8.20;;;;;;;2.81;45.13;100845.73;107296;1289;1002238;-61
2023/03/03 03:49:09;;;;;;;12.80;7.20;;;;;;;2.80;45.29;100841.19;107265;1289;1004134;-62
2023/03/03 03:51:37;;;;;;;13.80;7.60;;;;;;;2.78;45.18;100841.48;107334;1289;1003103;-60
2023/03/03 03:54:02;;;;;;;12.80;7.10;;;;;;;2.76;45.24;100844.20;108105;1289;22021;-62
2023/03/03 03:56:28;;;;;;;12.80;7.30;;;;;;;2.74;45.18;100839.64;107982;1289;21984;-62
2023/03/03 03:58:54;;;;;;;13.70;7.20;;;;;;;2.73;45.22;100839.59;108022;1289;21988;-60
2023/03/03 04:01:24;;;;;;;13.60;7.20;;;;;;;2.69;45.02;100836.90;107256;1289;1002243;-60
2023/03/03 04:03:50;;;;;;;13.10;7.50;;;;;;;2.61;44.92;100833.23;108051;1289;21994;-62
2023/03/03 04:06:15;;;;;;;13.50;7.20;;;;;;;2.50;44.76;100832.56;108039;1289;23615;-62
2023/03/03 04:08:41;;;;;;;14.40;7.00;;;;;;;2.44;44.87;100829.29;108063;1289;22010;-62
2023/03/03 04:11:07;;;;;;;12.40;6.60;;;;;;;2.44;44.98;100827.73;108008;1287;22165;-62
2023/03/03 04:13:34;;;;;;;15.70;9.10;;;;;;;2.43;45.03;100825.98;107962;1288;22454;-63
2023/03/03 04:16:01;;;;;;;15.40;7.10;;;;;;;2.42;44.98;100823.36;108027;1289;22470;-60
2023/03/03 04:18:27;;;;;;;12.70;8.20;;;;;;;2.41;44.99;100822.79;107991;1288;21990;-61
2023/03/03 04:20:58;;;;;;;17.40;7.90;;;;;;;2.40;44.98;100818.26;108054;1286;21993;-62
2023/03/03 04:23:24;;;;;;;17.70;8.60;;;;;;;2.40;45.01;100818.63;107974;1289;21986;-61
2023/03/03 04:25:50;;;;;;;18.30;7.60;;;;;;;2.42;45.18;100821.78;108012;1289;21998;-62
2023/03/03 04:28:17;;;;;;;15.70;7.70;;;;;;;2.44;45.13;100821.52;107959;1289;21989;-60
2023/03/03 04:30:43;;;;;;;14.40;7.60;;;;;;;2.47;45.09;100824.34;107263;1287;1002575;-61
2023/03/03 04:33:09;;;;;;;13.80;6.60;;;;;;;2.47;45.06;100820.72;107997;1289;21985;-61
2023/03/03 04:35:37;;;;;;;13.80;7.90;;;;;;;2.45;45.17;100816.14;107947;1288;22044;-61
2023/03/03 04:38:03;;;;;;;11.60;6.70;;;;;;;2.42;45.03;100816.75;107940;1289;21989;-61
2023/03/03 04:40:30;;;;;;;11.40;6.20;;;;;;;2.36;44.95;100818.50;107960;1289;21989;-60
2023/03/03 04:42:55;;;;;;;10.30;6.60;;;;;;;2.31;45.10;100817.15;107177;1284;1002339;-62
2023/03/03 04:45:22;;;;;;;12.60;6.60;;;;;;;2.26;44.96;100817.70;108010;1286;21993;-61
2023/03/03 04:47:49;;;;;;;12.00;6.80;;;;;;;2.19;45.01;100819.08;107951;1289;21991;-60
2023/03/03 04:50:15;;;;;;;14.10;7.10;;;;;;;2.14;45.16;100817.89;107981;1289;23634;-60
2023/03/03 04:52:42;;;;;;;14.30;7.30;;;;;;;2.14;45.18;100818.92;108036;1288;21995;-60
2023/03/03 04:55:08;;;;;;;13.00;7.20;;;;;;;2.15;45.30;100818.08;108039;1288;23058;-60
2023/03/03 04:57:36;;;;;;;12.20;7.10;;;;;;;2.16;45.34;100818.45;108011;1289;21986;-61
2023/03/03 05:00:02;;;;;;;13.40;6.50;;;;;;;2.18;45.34;100823.20;107979;1289;21999;-61
2023/03/03 05:02:29;;;;;;;12.90;7.20;;;;;;;2.22;45.26;100823.63;108021;1289;21980;-62
2023/03/03 05:04:55;;;;;;;13.10;7.60;;;;;;;2.26;45.63;100823.41;108078;1289;21993;-59
2023/03/03 05:07:24;;;;;;;13.40;8.30;;;;;;;2.31;45.58;100822.50;108045;1289;22026;-62
2023/03/03 05:09:50;;;;;;;26.10;9.10;;;;;;;2.32;45.68;100825.66;108000;1288;21987;-60
2023/03/03 05:12:16;;;;;;;11.40;6.70;;;;;;;2.38;45.88;100827.74;107353;1289;1002904;-63
2023/03/03 05:14:43;;;;;;;14.10;7.00;;;;;;;2.48;46.11;100830.78;108032;1288;21989;-64
2023/03/03 05:17:09;;;;;;;17.00;8.30;;;;;;;2.56;46.05;100828.92;107602;1289;1003048;-65
2023/03/03 05:19:34;;;;;;;13.60;7.10;;;;;;;2.65;46.00;100827.44;108011;1289;21988;-64
2023/03/03 05:22:00;;;;;;;19.10;7.90;;;;;;;2.73;46.09;100827.14;108052;1288;22029;-60
2023/03/03 05:24:26;;;;;;;21.30;8.70;;;;;;;2.85;46.36;100827.63;107981;1289;21990;-62
2023/03/03 05:26:52;;;;;;;16.80;7.40;;;;;;;3.02;46.53;100828.77;108020;1289;21981;-60
2023/03/03 05:29:18;;;;;;;13.90;7.70;;;;;;;3.14;46.45;100829.05;108054;1288;21994;-60
2023/03/03 05:31:44;;;;;;;16.40;8.10;;;;;;;3.22;46.33;100830.14;108046;1288;22024;-61
2023/03/03 05:34:10;;;;;;;18.30;9.30;;;;;;;3.30;46.47;100829.80;108028;1289;21985;-62
2023/03/03 05:36:36;;;;;;;14.30;8.10;;;;;;;3.40;46.57;100828.47;107999;1289;21985;-61
2023/03/03 05:39:02;;;;;;;16.60;8.40;;;;;;;3.51;46.74;100826.30;107964;1289;21994;-60
2023/03/03 05:41:28;;;;;;;15.50;9.40;;;;;;;3.61;46.72;100830.35;108064;1288;21994;-65
2023/03/03 05:43:55;;;;;;;17.60;8.40;;;;;;;3.70;46.85;100836.48;107957;1289;22155;-65
2023/03/03 05:46:21;;;;;;;18.30;10.30;;;;;;;3.82;47.02;100834.32;107942;1289;22045;-65
2023/03/03 05:48:47;;;;;;;16.00;9.10;;;;;;;3.94;47.15;100833.54;107952;1286;21996;-61
2023/03/03 05:51:13;;;;;;;18.40;9.00;;;;;;;4.06;47.08;100834.84;107969;1288;21982;-65
2023/03/03 05:53:39;;;;;;;15.30;8.30;;;;;;;4.19;47.34;100833.04;107982;1289;22004;-62
2023/03/03 05:56:05;;;;;;;14.10;8.40;;;;;;;4.35;47.81;100826.92;107966;1288;21989;-65
2023/03/03 05:58:32;;;;;;;15.10;9.80;;;;;;;4.52;48.17;100826.58;108011;1288;22122;-64
2023/03/03 06:00:58;;;;;;;17.30;9.10;;;;;;;4.70;48.30;100816.83;108000;1289;21992;-65
2023/03/03 06:03:24;;;;;;;17.20;9.80;;;;;;;4.90;48.37;100814.92;108059;1289;21986;-62
2023/03/03 06:05:50;;;;;;;18.70;10.50;;;;;;;5.10;48.61;100808.33;107984;1276;22025;-62
2023/03/03 06:08:17;;;;;;;18.00;10.20;;;;;;;5.34;49.09;100806.80;107226;1289;1003676;-62
2023/03/03 06:10:43;;;;;;;18.30;11.60;;;;;;;5.58;49.45;100807.35;107264;1289;1002231;-62
2023/03/03 06:13:09;;;;;;;20.20;11.30;;;;;;;5.84;50.13;100803.72;107219;1288;1004083;-63
2023/03/03 06:15:35;;;;;;;19.10;11.80;;;;;;;6.12;50.53;100800.97;107927;1289;21999;-63
2023/03/03 06:18:01;;;;;;;24.50;13.60;;;;;;;6.37;50.38;100798.67;107962;1288;21990;-64
2023/03/03 06:20:27;;;;;;;22.00;12.20;;;;;;;6.58;50.35;100800.14;108016;1288;22002;-64
2023/03/03 06:22:52;;;;;;;19.30;11.90;;;;;;;6.77;50.29;100797.70;107999;1286;23628;-66
2023/03/03 06:25:18;;;;;;;18.90;12.40;;;;;;;6.96;50.49;100797.89;108021;1281;22034;-62
2023/03/03 06:27:44;;;;;;;20.30;13.40;;;;;;;7.15;50.27;100797.71;107957;1289;22284;-64
2023/03/03 06:30:11;;;;;;;21.00;12.30;;;;;;;7.33;50.36;100799.61;107968;1277;22405;-64
2023/03/03 06:32:37;;;;;;;27.20;15.10;;;;;;;7.52;51.00;100798.88;108054;1283;21989;-64
2023/03/03 06:35:04;;;;;;;30.30;15.90;;;;;;;7.74;50.79;100792.02;107981;1289;22005;-62
2023/03/03 06:37:30;;;;;;;24.20;13.10;;;;;;;7.95;50.40;100795.44;108020;1289;23011;-63
2023/03/03 06:39:57;;;;;;;19.80;13.10;;;;;;;8.08;50.04;100795.34;107959;1277;21986;-65
2023/03/03 06:42:23;;;;;;;19.60;11.90;;;;;;;8.21;50.00;100794.00;107977;1289;22316;-65
2023/03/03 06:44:49;;;;;;;18.70;12.00;;;;;;;8.34;49.95;100792.67;108012;1286;21993;-66
2023/03/03 06:47:15;;;;;;;19.70;12.20;;;;;;;8.48;50.58;100793.05;108040;1288;21986;-65
2023/03/03 06:49:42;;;;;;;18.90;11.70;;;;;;;8.63;50.13;100791.71;108042;1289;22001;-65
2023/03/03 06:52:13;;;;;;;22.00;12.00;;;;;;;8.77;50.22;100793.33;108002;1289;22051;-65
2023/03/03 06:54:39;;;;;;;19.70;10.70;;;;;;;8.92;49.84;100788.45;108069;1289;21997;-64
2023/03/03 06:57:22;;;;;;;16.30;10.60;;;;;;;9.02;49.57;100787.06;108056;1288;21996;-64
2023/03/03 06:59:49;;;;;;;15.90;11.10;;;;;;;9.13;49.40;100784.25;108050;1287;21995;-63
2023/03/03 07:02:16;;;;;;;16.90;11.00;;;;;;;9.23;49.14;100782.86;107931;1288;21982;-65
2023/03/03 07:04:41;;;;;;;15.20;10.50;;;;;;;9.36;49.21;100781.98;108048;1289;22018;-64
2023/03/03 07:07:15;;;;;;;16.40;10.90;;;;;;;9.48;48.91;100776.53;108046;1289;21986;-63
2023/03/03 07:09:43;;;;;;;14.80;9.80;;;;;;;9.60;48.74;100777.03;108001;1289;23768;-65
2023/03/03 07:12:17;;;;;;;17.00;10.90;;;;;;;9.73;48.56;100776.65;107985;1276;21989;-65
2023/03/03 07:14:44;;;;;;;20.90;12.60;;;;;;;9.81;48.68;100772.43;108031;1289;23463;-65
2023/03/03 07:17:14;;;;;;;18.20;12.10;;;;;;;9.96;48.96;100768.70;108041;1289;21997;-65
2023/03/03 07:19:40;;;;;;;20.70;13.00;;;;;;;10.17;49.12;100767.58;108024;1289;22171;-65
2023/03/03 07:22:11;;;;;;;17.50;11.70;;;;;;;10.34;48.68;100763.46;108036;1286;21998;-64
2023/03/03 07:24:37;;;;;;;16.70;10.50;;;;;;;10.48;48.43;100761.13;107972;1289;21991;-63
2023/03/03 07:27:18;;;;;;;16.30;10.80;;;;;;;10.57;47.62;100758.80;107919;1289;23653;-62
2023/03/03 07:29:48;;;;;;;15.80;10.40;;;;;;;10.62;47.65;100755.27;108008;1289;21989;-62
2023/03/03 07:32:42;;;;;;;19.40;12.80;;;;;;;10.67;47.32;100749.96;107991;1289;23050;-63
2023/03/03 07:35:39;;;;;;;20.80;13.20;;;;;;;10.72;47.43;100742.55;108081;1286;22020;-62
2023/03/03 07:38:29;;;;;;;21.40;13.30;;;;;;;10.89;47.31;100736.80;108018;1287;21986;-62
2023/03/03 07:40:57;;;;;;;20.00;12.00;;;;;;;11.04;47.29;100735.27;108061;1289;21992;-64
2023/03/03 07:43:36;;;;;;;22.70;13.00;;;;;;;11.16;46.84;100732.70;108010;1289;22099;-65
2023/03/03 07:46:42;;;;;;;20.70;12.50;;;;;;;11.31;46.78;100729.77;107982;1289;21975;-66
2023/03/03 07:49:35;;;;;;;19.10;12.30;;;;;;;11.58;46.95;100725.27;108118;1289;21993;-65
2023/03/03 07:52:02;;;;;;;20.80;13.20;;;;;;;11.85;46.51;100724.79;107983;1289;21995;-65
2023/03/03 07:54:35;;;;;;;20.00;12.90;;;;;;;12.00;45.53;100720.23;108032;1288;22023;-64
2023/03/03 07:57:10;;;;;;;20.70;13.60;;;;;;;12.16;45.23;100715.27;107958;1288;22032;-66
2023/03/03 07:59:45;;;;;;;18.20;12.50;;;;;;;12.26;45.19;100709.88;107974;1288;21995;-66
2023/03/03 08:02:52;;;;;;;21.00;11.90;;;;;;;12.40;45.32;100706.85;108006;1289;21996;-65
2023/03/03 08:05:47;;;;;;;18.00;10.50;;;;;;;12.53;44.64;100700.86;108076;1286;21998;-65
2023/03/03 08:08:30;;;;;;;16.70;11.50;;;;;;;12.70;44.29;100698.50;107866;1289;22003;-65
2023/03/03 08:10:57;;;;;;;17.50;11.20;;;;;;;12.92;44.59;100700.60;108091;1289;23357;-65
2023/03/03 08:13:42;;;;;;;15.90;10.30;;;;;;;13.04;43.98;100692.80;108066;1289;21984;-66
2023/03/03 08:16:08;;;;;;;14.20;10.10;;;;;;;13.11;43.42;100693.40;107993;1289;21988;-65
2023/03/03 08:18:41;;;;;;;16.10;10.50;;;;;;;13.17;42.76;100691.72;108035;1289;21994;-66
2023/03/03 08:21:14;;;;;;;16.80;9.20;;;;;;;13.21;42.20;100690.22;108098;1289;21997;-65
2023/03/03 08:23:40;;;;;;;14.10;9.60;;;;;;;13.23;41.78;100687.91;107975;1289;22024;-65
2023/03/03 08:26:06;;;;;;;13.30;9.20;;;;;;;13.33;42.60;100689.11;107888;1289;22734;-65
2023/03/03 08:28:32;;;;;;;12.90;8.40;;;;;;;13.44;42.20;100687.88;108037;1289;21986;-67
2023/03/03 08:31:01;;;;;;;15.00;9.20;;;;;;;13.51;41.51;100683.17;108067;1288;21991;-65
2023/03/03 08:33:28;;;;;;;12.50;8.70;;;;;;;13.62;41.06;100682.25;107995;1289;21991;-66
2023/03/03 08:35:53;;;;;;;12.90;8.30;;;;;;;13.71;40.84;100679.96;108047;1288;21991;-65
2023/03/03 08:38:20;;;;;;;12.50;8.30;;;;;;;13.79;40.93;100674.67;107916;1289;22338;-66
2023/03/03 08:40:46;;;;;;;15.20;10.00;;;;;;;13.83;40.72;100670.90;108058;1288;21984;-65
2023/03/03 08:43:20;;;;;;;13.70;8.70;;;;;;;13.91;40.47;100668.79;107921;1289;21982;-65
2023/03/03 08:45:48;;;;;;;11.60;8.10;;;;;;;14.01;40.18;100671.23;108042;1288;23715;-63
2023/03/03 08:48:14;;;;;;;13.20;7.80;;;;;;;14.03;39.56;100670.47;108035;1288;23156;-65
2023/03/03 08:50:40;;;;;;;11.30;8.00;;;;;;;14.10;39.98;100670.14;108128;1289;23624;-63
2023/03/03 08:53:07;;;;;;;10.90;7.90;;;;;;;14.08;39.27;100668.58;107955;1288;21993;-65
2023/03/03 08:55:38;;;;;;;12.10;8.20;;;;;;;14.04;38.53;100667.97;108098;1289;22011;-63
2023/03/03 08:58:04;;;;;;;13.00;7.90;;;;;;;13.93;38.68;100666.61;108055;1289;21985;-64
2023/03/03 09:00:29;;;;;;;12.30;7.70;;;;;;;13.89;39.07;100661.08;108107;1288;21982;-62
2023/03/03 09:03:15;;;;;;;12.70;8.10;;;;;;;13.75;38.24;100658.73;108017;1288;21982;-62
2023/03/03 09:05:41;;;;;;;12.30;8.30;;;;;;;13.65;38.51;100659.09;108130;1289;21948;-64
2023/03/03 09:08:10;;;;;;;13.20;7.80;;;;;;;13.66;39.05;100655.02;108074;1288;21982;-66
2023/03/03 09:10:36;;;;;;;15.50;10.30;;;;;;;13.67;39.04;100655.00;108063;1289;21991;-64
2023/03/03 09:13:13;;;;;;;13.00;8.50;;;;;;;13.73;39.21;100654.70;108086;1288;22031;-65
2023/03/03 09:15:40;;;;;;;14.40;9.90;;;;;;;13.79;39.16;100651.90;108152;1289;21998;-65
2023/03/03 09:18:18;;;;;;;13.30;9.60;;;;;;;13.88;39.48;100648.39;108139;1287;22009;-64
2023/03/03 09:20:52;;;;;;;15.90;10.30;;;;;;;13.97;39.35;100642.55;108063;1288;21989;-63
2023/03/03 09:23:40;;;;;;;13.90;9.20;;;;;;;14.08;39.03;100643.37;108102;1287;22021;-63
2023/03/03 09:26:43;;;;;;;13.90;9.70;;;;;;;14.16;38.76;100633.82;108053;1289;21982;-63
2023/03/03 09:29:24;;;;;;;14.00;9.50;;;;;;;14.26;38.98;100628.30;108059;1288;21985;-63
2023/03/03 09:31:58;;;;;;;;;;;;;;;14.31;38.66;100629.42;108092;1289;21967;-64
2023/03/03 09:34:38;;;;;;;12.10;8.70;;;;;;;14.40;38.71;100628.50;108127;1288;21983;-63
2023/03/03 09:37:35;;;;;;;13.40;9.20;;;;;;;14.50;38.50;100627.02;108071;1288;21991;-63
2023/03/03 09:40:15;;;;;;;13.20;8.90;;;;;;;14.65;37.96;100620.11;108074;1289;21997;-64
2023/03/03 09:43:03;;;;;;;13.40;8.80;;;;;;;14.72;38.21;100614.14;108027;1289;21987;-63
2023/03/03 09:45:45;;;;;;;14.60;10.00;;;;;;;14.76;37.69;100610.70;107394;1289;1002214;-65
2023/03/03 09:48:26;;;;;;;14.00;10.50;;;;;;;14.92;38.61;100603.73;108036;1283;22439;-64
2023/03/03 09:51:11;;;;;;;11.20;8.70;;;;;;;15.03;38.42;100595.30;108078;1288;21995;-64
2023/03/03 09:54:08;;;;;;;13.30;9.30;;;;;;;14.99;38.21;100592.23;108023;1288;21989;-65
2023/03/03 09:56:41;;;;;;;13.80;9.00;;;;;;;14.84;37.98;100585.02;108078;1288;21996;-64
2023/03/03 09:59:28;;;;;;;14.10;9.70;;;;;;;14.83;38.23;100584.54;108063;1289;21993;-64
2023/03/03 10:02:09;;;;;;;13.60;9.40;;;;;;;14.89;38.12;100577.15;108038;1289;21990;-65
2023/03/03 10:04:57;;;;;;;15.00;9.40;;;;;;;15.10;38.53;100568.27;108012;1288;21986;-64
2023/03/03 10:07:43;;;;;;;13.60;8.90;;;;;;;15.38;38.50;100561.45;108035;1289;22069;-65
2023/03/03 10:10:27;;;;;;;15.30;10.30;;;;;;;15.64;37.78;100555.01;108084;1287;21981;-66
2023/03/03 10:12:57;;;;;;;12.60;9.70;;;;;;;15.85;37.52;100551.04;108043;1289;23626;-66
2023/03/03 10:15:53;;;;;;;13.30;9.70;;;;;;;15.89;37.38;100548.27;107987;1288;22166;-64
2023/03/03 10:18:49;;;;;;;14.40;9.50;;;;;;;15.90;37.77;100542.20;107872;1289;23644;-65
2023/03/03 10:21:38;;;;;;;;;;;;;;;15.91;37.65;100534.02;107884;1289;22683;-64
2023/03/03 10:24:22;;;;;;;15.60;9.80;;;;;;;15.98;37.23;100530.11;107909;1289;22000;-63
2023/03/03 10:26:57;;;;;;;15.50;10.80;;;;;;;16.09;36.69;100522.48;107912;1288;21982;-64
2023/03/03 10:29:44;;;;;;;11.90;8.40;;;;;;;16.27;36.34;100516.05;107944;1288;22037;-64
2023/03/03 10:32:28;;;;;;;13.90;9.10;;;;;;;16.45;36.79;100516.88;108012;1288;23816;-65
2023/03/03 10:35:31;;;;;;;14.80;9.50;;;;;;;16.48;36.20;100514.98;108024;1289;22209;-63
2023/03/03 10:38:15;;;;;;;12.30;9.10;;;;;;;16.52;36.90;100508.84;108015;1289;22028;-65
2023/03/03 10:40:53;;;;;;;13.60;9.20;;;;;;;16.60;36.67;100494.23;107980;1288;24147;-64
2023/03/03 10:43:32;;;;;;;16.40;9.90;;;;;;;16.68;35.71;100493.93;108004;1288;23058;-64
2023/03/03 10:46:13;;;;;;;13.30;9.20;;;;;;;16.58;35.46;100490.89;108000;1289;22821;-67
2023/03/03 10:48:57;;;;;;;14.50;8.60;;;;;;;16.48;35.65;100487.73;108034;1287;22020;-64
2023/03/03 10:51:29;;;;;;;13.70;8.30;;;;;;;16.39;35.95;100478.83;107996;1288;21992;-64
2023/03/03 10:54:03;;;;;;;12.60;8.40;;;;;;;16.40;35.89;100474.38;108029;1288;22010;-65
2023/03/03 10:56:49;;;;;;;12.80;8.10;;;;;;;16.46;36.11;100469.02;108007;1289;23711;-65
2023/03/03 10:59:41;;;;;;;13.10;7.70;;;;;;;16.60;35.79;100466.58;108006;1286;21989;-67
2023/03/03 11:02:17;;;;;;;13.00;8.40;;;;;;;16.78;35.73;100460.96;108009;1288;23722;-66
2023/03/03 11:05:03;;;;;;;15.30;8.70;;;;;;;16.87;35.13;100456.38;108164;1287;21985;-64
2023/03/03 11:07:41;;;;;;;10.90;7.90;;;;;;;16.89;34.83;100453.13;108023;1289;22032;-67
2023/03/03 11:10:35;;;;;;;11.50;7.90;;;;;;;16.96;35.27;100452.17;108039;1287;22064;-67
2023/03/03 11:13:10;;;;;;;11.80;7.80;;;;;;;17.04;35.84;100441.42;108034;1288;21997;-65
2023/03/03 11:15:48;;;;;;;11.70;7.90;;;;;;;17.23;36.23;100441.61;108058;1289;22003;-67
2023/03/03 11:18:23;;;;;;;13.00;8.30;;;;;;;17.38;35.80;100442.27;108081;1289;21984;-68
2023/03/03 11:20:55;;;;;;;11.00;7.70;;;;;;;17.46;34.89;100437.33;108068;1289;21983;-65
2023/03/03 11:23:56;;;;;;;12.10;8.70;;;;;;;17.51;34.92;100428.25;108070;1289;21989;-66
2023/03/03 11:26:21;;;;;;;13.70;8.30;;;;;;;17.60;34.76;100430.71;108079;1289;23731;-66
2023/03/03 11:28:53;;;;;;;11.70;7.50;;;;;;;17.61;34.41;100431.59;108029;1289;21985;-65
2023/03/03 11:31:25;;;;;;;13.00;7.60;;;;;;;17.69;34.25;100429.99;108068;1289;23609;-66